sensor_id;sensor_type;location;lat;lon;timestamp;pressure;altitude;pressure_sealevel;temperature;humidity
47280;BME280;34064;44.942;0.008;2022-12-29T00:01:32;98752.41;;;13.77;61.68
47280;BME280;34064;44.942;0.008;2022-12-29T00:03:59;98741.16;;;13.73;61.74
47280;BME280;34064;44.942;0.008;2022-12-29T00:06:25;98743.00;;;13.72;61.76
47280;BME280;34064;44.942;0.008;2022-12-29T00:09:01;98750.28;;;13.70;61.73
47280;BME280;34064;44.942;0.008;2022-12-29T00:11:28;98747.06;;;13.67;61.69
47280;BME280;34064;44.942;0.008;2022-12-29T00:13:55;98753.22;;;13.67;61.75
47280;BME280;34064;44.942;0.008;2022-12-29T00:16:42;98754.34;;;13.65;61.71
47280;BME280;34064;44.942;0.008;2022-12-29T00:19:22;98755.59;;;13.61;62.04
47280;BME280;34064;44.942;0.008;2022-12-29T00:22:09;98754.63;;;13.62;61.72
47280;BME280;34064;44.942;0.008;2022-12-29T00:24:55;98748.72;;;13.58;61.76
47280;BME280;34064;44.942;0.008;2022-12-29T00:27:39;98747.03;;;13.57;61.97
47280;BME280;34064;44.942;0.008;2022-12-29T00:30:24;98732.72;;;13.58;62.03
47280;BME280;34064;44.942;0.008;2022-12-29T00:33:18;98730.75;;;13.60;61.93
47280;BME280;34064;44.942;0.008;2022-12-29T00:36:22;98710.66;;;13.66;61.82
47280;BME280;34064;44.942;0.008;2022-12-29T00:39:12;98708.84;;;13.66;61.81
47280;BME280;34064;44.942;0.008;2022-12-29T00:42:08;98703.66;;;13.65;61.87
47280;BME280;34064;44.942;0.008;2022-12-29T00:44:53;98695.38;;;13.68;61.85
47280;BME280;34064;44.942;0.008;2022-12-29T00:47:20;98694.50;;;13.67;61.95
47280;BME280;34064;44.942;0.008;2022-12-29T00:49:46;98699.84;;;13.67;61.86
47280;BME280;34064;44.942;0.008;2022-12-29T00:52:25;98690.03;;;13.68;61.77
47280;BME280;34064;44.942;0.008;2022-12-29T00:54:52;98689.88;;;13.69;61.81
47280;BME280;34064;44.942;0.008;2022-12-29T00:57:20;98689.72;;;13.71;61.75
47280;BME280;34064;44.942;0.008;2022-12-29T00:59:49;98682.28;;;13.75;61.68
47280;BME280;34064;44.942;0.008;2022-12-29T01:02:16;98694.66;;;13.76;61.53
47280;BME280;34064;44.942;0.008;2022-12-29T01:04:51;98693.97;;;13.73;61.79
47280;BME280;34064;44.942;0.008;2022-12-29T01:07:24;98700.69;;;13.78;61.58
47280;BME280;34064;44.942;0.008;2022-12-29T01:09:51;98695.09;;;13.81;61.62
47280;BME280;34064;44.942;0.008;2022-12-29T01:12:39;98700.41;;;13.81;61.54
47280;BME280;34064;44.942;0.008;2022-12-29T01:15:15;98696.63;;;13.83;61.50
47280;BME280;34064;44.942;0.008;2022-12-29T01:17:46;98704.47;;;13.85;61.44
47280;BME280;34064;44.942;0.008;2022-12-29T01:20:49;98711.09;;;13.81;61.75
47280;BME280;34064;44.942;0.008;2022-12-29T01:23:29;98723.88;;;13.87;61.53
47280;BME280;34064;44.942;0.008;2022-12-29T01:25:57;98722.91;;;13.88;61.37
47280;BME280;34064;44.942;0.008;2022-12-29T01:28:27;98735.25;;;13.89;61.36
47280;BME280;34064;44.942;0.008;2022-12-29T01:31:15;98746.78;;;13.89;61.47
47280;BME280;34064;44.942;0.008;2022-12-29T01:33:52;98734.28;;;13.90;61.51
47280;BME280;34064;44.942;0.008;2022-12-29T01:36:23;98743.53;;;13.86;61.68
47280;BME280;34064;44.942;0.008;2022-12-29T01:38:53;98747.91;;;13.87;61.77
47280;BME280;34064;44.942;0.008;2022-12-29T01:41:27;98741.59;;;13.88;61.56
47280;BME280;34064;44.942;0.008;2022-12-29T01:43:58;98749.31;;;13.91;61.42
47280;BME280;34064;44.942;0.008;2022-12-29T01:46:41;98747.63;;;13.90;61.24
47280;BME280;34064;44.942;0.008;2022-12-29T01:49:27;98750.72;;;13.95;61.06
47280;BME280;34064;44.942;0.008;2022-12-29T01:52:07;98746.66;;;13.91;61.31
47280;BME280;34064;44.942;0.008;2022-12-29T01:54:36;98748.34;;;13.92;61.20
47280;BME280;34064;44.942;0.008;2022-12-29T01:57:16;98755.09;;;13.86;61.50
47280;BME280;34064;44.942;0.008;2022-12-29T02:00:04;98751.41;;;13.78;61.56
47280;BME280;34064;44.942;0.008;2022-12-29T02:02:34;98752.69;;;13.73;61.64
47280;BME280;34064;44.942;0.008;2022-12-29T02:05:13;98747.47;;;13.72;61.73
47280;BME280;34064;44.942;0.008;2022-12-29T02:07:42;98756.59;;;13.69;61.87
47280;BME280;34064;44.942;0.008;2022-12-29T02:10:12;98752.97;;;13.70;61.73
47280;BME280;34064;44.942;0.008;2022-12-29T02:12:52;98752.97;;;13.70;61.58
47280;BME280;34064;44.942;0.008;2022-12-29T02:15:52;98754.91;;;13.68;61.66
47280;BME280;34064;44.942;0.008;2022-12-29T02:33:49;98759.97;;;13.52;62.22
47280;BME280;34064;44.942;0.008;2022-12-29T02:36:47;98767.25;;;13.50;62.16
47280;BME280;34064;44.942;0.008;2022-12-29T02:39:37;98769.91;;;13.50;62.04
47280;BME280;34064;44.942;0.008;2022-12-29T02:45:41;98765.13;;;13.44;62.55
47280;BME280;34064;44.942;0.008;2022-12-29T02:51:07;98761.50;;;13.45;62.16
47280;BME280;34064;44.942;0.008;2022-12-29T02:53:37;98762.47;;;13.44;62.23
47280;BME280;34064;44.942;0.008;2022-12-29T02:56:22;98770.59;;;13.42;62.25
47280;BME280;34064;44.942;0.008;2022-12-29T02:58:50;98768.06;;;13.40;62.42
47280;BME280;34064;44.942;0.008;2022-12-29T03:07:04;98770.00;;;13.38;62.46
47280;BME280;34064;44.942;0.008;2022-12-29T03:09:43;98773.41;;;13.40;62.50
47280;BME280;34064;44.942;0.008;2022-12-29T03:12:31;98772.56;;;13.40;62.56
47280;BME280;34064;44.942;0.008;2022-12-29T03:15:44;98772.16;;;13.45;62.46
47280;BME280;34064;44.942;0.008;2022-12-29T03:19:36;98768.63;;;13.44;62.61
47280;BME280;34064;44.942;0.008;2022-12-29T03:21:47;98770.34;;;13.45;62.62
47280;BME280;34064;44.942;0.008;2022-12-29T03:24:38;98770.19;;;13.47;62.55
47280;BME280;34064;44.942;0.008;2022-12-29T03:27:10;98770.06;;;13.48;62.50
47280;BME280;34064;44.942;0.008;2022-12-29T03:29:49;98759.41;;;13.48;62.64
47280;BME280;34064;44.942;0.008;2022-12-29T03:32:22;98769.22;;;13.48;63.11
47280;BME280;34064;44.942;0.008;2022-12-29T03:34:54;98771.19;;;13.46;63.29
47280;BME280;34064;44.942;0.008;2022-12-29T03:37:23;98774.84;;;13.45;63.25
47280;BME280;34064;44.942;0.008;2022-12-29T03:39:51;98773.16;;;13.44;63.02
47280;BME280;34064;44.942;0.008;2022-12-29T03:42:21;98752.78;;;13.43;63.24
47280;BME280;34064;44.942;0.008;2022-12-29T03:44:49;98734.09;;;13.43;63.66
47280;BME280;34064;44.942;0.008;2022-12-29T03:47:24;98739.44;;;13.43;63.43
47280;BME280;34064;44.942;0.008;2022-12-29T03:49:53;98755.19;;;13.46;63.48
47280;BME280;34064;44.942;0.008;2022-12-29T03:52:20;98756.16;;;13.45;63.66
47280;BME280;34064;44.942;0.008;2022-12-29T03:54:48;98764.00;;;13.46;63.77
47280;BME280;34064;44.942;0.008;2022-12-29T03:57:24;98772.03;;;13.46;63.84
47280;BME280;34064;44.942;0.008;2022-12-29T03:59:52;98774.84;;;13.45;64.04
47280;BME280;34064;44.942;0.008;2022-12-29T04:02:19;98771.44;;;13.43;63.89
47280;BME280;34064;44.942;0.008;2022-12-29T04:04:46;98764.16;;;13.45;63.80
47280;BME280;34064;44.942;0.008;2022-12-29T04:07:14;98757.84;;;13.46;63.95
47280;BME280;34064;44.942;0.008;2022-12-29T04:09:44;98755.88;;;13.48;64.00
47280;BME280;34064;44.942;0.008;2022-12-29T04:12:14;98753.75;;;13.41;64.76
47280;BME280;34064;44.942;0.008;2022-12-29T04:14:41;98745.34;;;13.46;64.15
47280;BME280;34064;44.942;0.008;2022-12-29T04:17:09;98749.84;;;13.46;64.22
47280;BME280;34064;44.942;0.008;2022-12-29T04:19:36;98738.03;;;13.48;64.16
47280;BME280;34064;44.942;0.008;2022-12-29T04:22:03;98744.22;;;13.49;64.18
47280;BME280;34064;44.942;0.008;2022-12-29T04:24:29;98745.63;;;13.53;64.13
47280;BME280;34064;44.942;0.008;2022-12-29T04:27:01;98736.91;;;13.51;64.14
47280;BME280;34064;44.942;0.008;2022-12-29T04:29:28;98748.31;;;13.53;63.97
47280;BME280;34064;44.942;0.008;2022-12-29T04:31:56;98733.28;;;13.52;64.12
47280;BME280;34064;44.942;0.008;2022-12-29T04:34:23;98746.75;;;13.50;64.25
47280;BME280;34064;44.942;0.008;2022-12-29T04:36:50;98747.59;;;13.51;64.33
47280;BME280;34064;44.942;0.008;2022-12-29T04:39:17;98745.91;;;13.50;64.91
47280;BME280;34064;44.942;0.008;2022-12-29T04:41:54;98744.09;;;13.50;64.29
47280;BME280;34064;44.942;0.008;2022-12-29T04:44:22;98745.91;;;13.50;64.36
47280;BME280;34064;44.942;0.008;2022-12-29T04:46:49;98744.09;;;13.50;64.33
47280;BME280;34064;44.942;0.008;2022-12-29T04:49:17;98748.41;;;13.51;64.56
47280;BME280;34064;44.942;0.008;2022-12-29T04:51:44;98746.47;;;13.53;64.28
47280;BME280;34064;44.942;0.008;2022-12-29T04:54:21;98756.56;;;13.50;64.50
47280;BME280;34064;44.942;0.008;2022-12-29T04:56:49;98747.44;;;13.52;64.56
47280;BME280;34064;44.942;0.008;2022-12-29T04:59:16;98754.63;;;13.52;64.48
47280;BME280;34064;44.942;0.008;2022-12-29T05:01:43;98748.16;;;13.54;64.37
47280;BME280;34064;44.942;0.008;2022-12-29T05:04:11;98743.78;;;13.53;64.40
47280;BME280;34064;44.942;0.008;2022-12-29T05:06:45;98750.00;;;13.54;64.55
47280;BME280;34064;44.942;0.008;2022-12-29T05:09:12;98742.00;;;13.54;64.43
47280;BME280;34064;44.942;0.008;2022-12-29T05:11:43;98750.97;;;13.53;64.59
47280;BME280;34064;44.942;0.008;2022-12-29T05:14:10;98750.97;;;13.53;64.62
47280;BME280;34064;44.942;0.008;2022-12-29T05:16:41;98757.13;;;13.53;64.47
47280;BME280;34064;44.942;0.008;2022-12-29T05:19:09;98758.13;;;13.52;64.71
47280;BME280;34064;44.942;0.008;2022-12-29T05:21:36;98766.28;;;13.51;65.10
47280;BME280;34064;44.942;0.008;2022-12-29T05:24:07;98766.00;;;13.54;64.66
47280;BME280;34064;44.942;0.008;2022-12-29T05:26:34;98764.31;;;13.53;64.84
47280;BME280;34064;44.942;0.008;2022-12-29T05:29:05;98766.13;;;13.52;65.00
47280;BME280;34064;44.942;0.008;2022-12-29T05:31:35;98769.50;;;13.54;64.94
47280;BME280;34064;44.942;0.008;2022-12-29T05:34:02;98774.84;;;13.54;65.41
47280;BME280;34064;44.942;0.008;2022-12-29T05:36:29;98780.75;;;13.58;65.40
47280;BME280;34064;44.942;0.008;2022-12-29T05:38:56;98777.66;;;13.53;65.24
47280;BME280;34064;44.942;0.008;2022-12-29T05:41:23;98781.31;;;13.52;65.32
47280;BME280;34064;44.942;0.008;2022-12-29T05:43:50;98770.63;;;13.52;65.64
47280;BME280;34064;44.942;0.008;2022-12-29T05:46:19;98763.47;;;13.52;65.52
47280;BME280;34064;44.942;0.008;2022-12-29T05:48:45;98771.34;;;13.54;65.35
47280;BME280;34064;44.942;0.008;2022-12-29T05:51:11;98768.69;;;13.54;65.23
47280;BME280;34064;44.942;0.008;2022-12-29T05:53:38;98770.38;;;13.55;65.29
47280;BME280;34064;44.942;0.008;2022-12-29T05:56:04;98772.88;;;13.56;65.22
47280;BME280;34064;44.942;0.008;2022-12-29T05:58:31;98768.69;;;13.54;65.42
47280;BME280;34064;44.942;0.008;2022-12-29T06:00:57;98779.06;;;13.57;65.39
47280;BME280;34064;44.942;0.008;2022-12-29T06:03:24;98775.72;;;13.55;65.40
47280;BME280;34064;44.942;0.008;2022-12-29T06:05:50;98775.72;;;13.55;65.55
47280;BME280;34064;44.942;0.008;2022-12-29T06:08:17;98772.03;;;13.56;65.52
47280;BME280;34064;44.942;0.008;2022-12-29T06:10:43;98771.19;;;13.55;65.83
47280;BME280;34064;44.942;0.008;2022-12-29T06:13:12;98772.75;;;13.58;65.70
47280;BME280;34064;44.942;0.008;2022-12-29T06:15:38;98773.44;;;13.60;65.58
47280;BME280;34064;44.942;0.008;2022-12-29T06:18:06;98775.16;;;13.61;65.57
47280;BME280;34064;44.942;0.008;2022-12-29T06:20:32;98767.13;;;13.61;65.82
47280;BME280;34064;44.942;0.008;2022-12-29T06:23:00;98776.13;;;13.60;65.75
47280;BME280;34064;44.942;0.008;2022-12-29T06:25:26;98773.44;;;13.60;65.72
47280;BME280;34064;44.942;0.008;2022-12-29T06:27:54;98778.78;;;13.60;65.91
47280;BME280;34064;44.942;0.008;2022-12-29T06:30:22;98776.84;;;13.62;65.68
47280;BME280;34064;44.942;0.008;2022-12-29T06:32:48;98771.50;;;13.62;66.18
47280;BME280;34064;44.942;0.008;2022-12-29T06:35:14;98771.50;;;13.62;65.84
47280;BME280;34064;44.942;0.008;2022-12-29T06:37:41;98774.88;;;13.64;65.99
47280;BME280;34064;44.942;0.008;2022-12-29T06:40:11;98773.19;;;13.63;65.97
47280;BME280;34064;44.942;0.008;2022-12-29T06:42:38;98781.31;;;13.62;65.92
47280;BME280;34064;44.942;0.008;2022-12-29T06:45:05;98764.22;;;13.64;66.01
47280;BME280;34064;44.942;0.008;2022-12-29T06:47:35;98774.88;;;13.64;65.91
47280;BME280;34064;44.942;0.008;2022-12-29T06:50:02;98779.34;;;13.64;66.11
47280;BME280;34064;44.942;0.008;2022-12-29T06:52:28;98769.25;;;13.67;66.03
47280;BME280;34064;44.942;0.008;2022-12-29T06:54:55;98762.22;;;13.66;66.13
47280;BME280;34064;44.942;0.008;2022-12-29T06:57:22;98763.06;;;13.67;66.35
47280;BME280;34064;44.942;0.008;2022-12-29T06:59:49;98756.75;;;13.68;66.16
47280;BME280;34064;44.942;0.008;2022-12-29T07:02:15;98756.59;;;13.69;66.09
47280;BME280;34064;44.942;0.008;2022-12-29T07:04:44;98756.47;;;13.71;66.12
47280;BME280;34064;44.942;0.008;2022-12-29T07:07:12;98748.44;;;13.71;66.18
47280;BME280;34064;44.942;0.008;2022-12-29T07:09:39;98754.91;;;13.68;66.66
47280;BME280;34064;44.942;0.008;2022-12-29T07:12:05;98751.28;;;13.69;66.50
47280;BME280;34064;44.942;0.008;2022-12-29T07:14:32;98755.63;;;13.70;66.46
47280;BME280;34064;44.942;0.008;2022-12-29T07:16:58;98745.94;;;13.69;66.52
47280;BME280;34064;44.942;0.008;2022-12-29T07:19:24;98738.06;;;13.68;66.57
47280;BME280;34064;44.942;0.008;2022-12-29T07:21:51;98742.00;;;13.64;66.75
47280;BME280;34064;44.942;0.008;2022-12-29T07:24:20;98742.00;;;13.64;66.61
47280;BME280;34064;44.942;0.008;2022-12-29T07:26:46;98734.13;;;13.62;66.57
47280;BME280;34064;44.942;0.008;2022-12-29T07:29:15;98750.16;;;13.62;66.50
47280;BME280;34064;44.942;0.008;2022-12-29T07:31:41;98757.44;;;13.60;66.60
47280;BME280;34064;44.942;0.008;2022-12-29T07:34:09;98749.44;;;13.60;66.39
47280;BME280;34064;44.942;0.008;2022-12-29T07:36:37;98747.59;;;13.61;66.53
47280;BME280;34064;44.942;0.008;2022-12-29T07:39:04;98752.25;;;13.59;66.30
47280;BME280;34064;44.942;0.008;2022-12-29T07:41:30;98745.94;;;13.60;66.41
47280;BME280;34064;44.942;0.008;2022-12-29T07:43:57;98747.03;;;13.57;66.58
47280;BME280;34064;44.942;0.008;2022-12-29T07:46:23;98750.69;;;13.56;66.63
47280;BME280;34064;44.942;0.008;2022-12-29T07:48:49;98759.41;;;13.58;66.61
47280;BME280;34064;44.942;0.008;2022-12-29T07:51:19;98762.94;;;13.59;66.42
47280;BME280;34064;44.942;0.008;2022-12-29T07:53:45;98762.06;;;13.58;66.63
47280;BME280;34064;44.942;0.008;2022-12-29T07:56:11;98764.72;;;13.58;66.57
47280;BME280;34064;44.942;0.008;2022-12-29T07:58:38;98757.44;;;13.60;66.54
47280;BME280;34064;44.942;0.008;2022-12-29T08:01:04;98755.47;;;13.62;66.60
47280;BME280;34064;44.942;0.008;2022-12-29T08:03:31;98761.09;;;13.59;66.90
47280;BME280;34064;44.942;0.008;2022-12-29T08:05:57;98761.53;;;13.64;66.55
47280;BME280;34064;44.942;0.008;2022-12-29T08:08:24;98772.91;;;13.66;66.52
47280;BME280;34064;44.942;0.008;2022-12-29T08:10:50;98752.25;;;13.68;66.51
47280;BME280;34064;44.942;0.008;2022-12-29T08:13:16;98752.97;;;13.70;66.92
47280;BME280;34064;44.942;0.008;2022-12-29T08:15:46;98756.34;;;13.72;66.67
47280;BME280;34064;44.942;0.008;2022-12-29T08:18:12;98757.03;;;13.75;66.60
47280;BME280;34064;44.942;0.008;2022-12-29T08:20:39;98759.44;;;13.78;66.46
47280;BME280;34064;44.942;0.008;2022-12-29T08:23:05;98755.78;;;13.79;66.65
47280;BME280;34064;44.942;0.008;2022-12-29T08:25:31;98761.81;;;13.81;66.66
47280;BME280;34064;44.942;0.008;2022-12-29T08:27:58;98749.03;;;13.84;66.67
47280;BME280;34064;44.942;0.008;2022-12-29T08:30:27;98769.41;;;13.85;66.47
47280;BME280;34064;44.942;0.008;2022-12-29T08:32:53;98763.94;;;13.87;66.54
47280;BME280;34064;44.942;0.008;2022-12-29T08:35:20;98765.63;;;13.88;66.61
47280;BME280;34064;44.942;0.008;2022-12-29T08:37:46;98761.00;;;13.90;66.65
47280;BME280;34064;44.942;0.008;2022-12-29T08:40:12;98767.03;;;13.92;66.58
47280;BME280;34064;44.942;0.008;2022-12-29T08:42:40;98768.72;;;13.93;66.57
47280;BME280;34064;44.942;0.008;2022-12-29T08:45:07;98774.75;;;13.95;66.61
47280;BME280;34064;44.942;0.008;2022-12-29T08:47:36;98757.47;;;13.99;66.71
47280;BME280;34064;44.942;0.008;2022-12-29T08:50:03;98761.84;;;14.00;66.65
47280;BME280;34064;44.942;0.008;2022-12-29T08:52:29;98765.63;;;14.08;66.67
47280;BME280;34064;44.942;0.008;2022-12-29T08:54:56;98765.63;;;14.08;66.46
47280;BME280;34064;44.942;0.008;2022-12-29T08:57:22;98770.00;;;14.09;66.62
47280;BME280;34064;44.942;0.008;2022-12-29T08:59:48;98763.34;;;14.13;66.49
47280;BME280;34064;44.942;0.008;2022-12-29T09:02:15;98766.75;;;14.15;66.66
47280;BME280;34064;44.942;0.008;2022-12-29T09:04:41;98772.09;;;14.15;66.57
47280;BME280;34064;44.942;0.008;2022-12-29T09:07:08;98773.06;;;14.14;66.57
47280;BME280;34064;44.942;0.008;2022-12-29T09:09:34;98781.78;;;14.16;66.61
47280;BME280;34064;44.942;0.008;2022-12-29T09:12:01;98785.31;;;14.16;66.73
47280;BME280;34064;44.942;0.008;2022-12-29T09:14:27;98789.81;;;14.16;66.69
47280;BME280;34064;44.942;0.008;2022-12-29T09:16:54;98786.16;;;14.17;66.76
47280;BME280;34064;44.942;0.008;2022-12-29T09:19:39;98789.53;;;14.19;66.57
47280;BME280;34064;44.942;0.008;2022-12-29T09:22:05;98794.88;;;14.19;66.74
47280;BME280;34064;44.942;0.008;2022-12-29T09:24:32;98791.22;;;14.20;66.82
47280;BME280;34064;44.942;0.008;2022-12-29T09:26:58;98796.00;;;14.16;66.81
47280;BME280;34064;44.942;0.008;2022-12-29T09:29:27;98792.31;;;14.17;66.84
47280;BME280;34064;44.942;0.008;2022-12-29T09:31:53;98801.19;;;14.18;66.69
47280;BME280;34064;44.942;0.008;2022-12-29T09:34:19;98805.56;;;14.19;66.79
47280;BME280;34064;44.942;0.008;2022-12-29T09:36:46;98797.66;;;14.17;66.86
47280;BME280;34064;44.942;0.008;2022-12-29T09:39:13;98809.22;;;14.18;66.91
47280;BME280;34064;44.942;0.008;2022-12-29T09:42:08;98796.56;;;14.20;66.78
47280;BME280;34064;44.942;0.008;2022-12-29T09:44:51;98804.44;;;14.22;66.88
47280;BME280;34064;44.942;0.008;2022-12-29T09:47:20;98798.81;;;14.25;66.68
47280;BME280;34064;44.942;0.008;2022-12-29T09:50:33;98790.91;;;14.23;66.67
47280;BME280;34064;44.942;0.008;2022-12-29T09:55:42;98808.50;;;14.26;66.76
47280;BME280;34064;44.942;0.008;2022-12-29T10:01:28;98815.66;;;14.25;66.93
47280;BME280;34064;44.942;0.008;2022-12-29T10:03:58;98814.97;;;14.23;67.04
47280;BME280;34064;44.942;0.008;2022-12-29T10:09:46;98813.00;;;14.25;67.07
47280;BME280;34064;44.942;0.008;2022-12-29T10:13:08;98812.00;;;14.26;67.06
47280;BME280;34064;44.942;0.008;2022-12-29T10:15:49;98819.06;;;14.27;67.08
47280;BME280;34064;44.942;0.008;2022-12-29T10:18:56;98811.03;;;14.27;67.20
47280;BME280;34064;44.942;0.008;2022-12-29T10:24:22;98796.97;;;14.25;67.42
47280;BME280;34064;44.942;0.008;2022-12-29T10:26:52;98797.69;;;14.27;67.58
47280;BME280;34064;44.942;0.008;2022-12-29T10:29:29;98795.72;;;14.29;67.76
47280;BME280;34064;44.942;0.008;2022-12-29T10:32:13;98789.66;;;14.27;67.46
47280;BME280;34064;44.942;0.008;2022-12-29T10:34:47;98790.38;;;14.29;67.86
47280;BME280;34064;44.942;0.008;2022-12-29T10:42:52;98791.19;;;14.30;67.76
47280;BME280;34064;44.942;0.008;2022-12-29T10:45:20;98787.53;;;14.31;67.80
47280;BME280;34064;44.942;0.008;2022-12-29T10:48:05;98790.22;;;14.31;67.78
47280;BME280;34064;44.942;0.008;2022-12-29T10:50:35;98781.50;;;14.29;67.98
47280;BME280;34064;44.942;0.008;2022-12-29T10:53:05;98788.53;;;14.30;68.58
47280;BME280;34064;44.942;0.008;2022-12-29T10:55:37;98780.34;;;14.31;68.34
47280;BME280;34064;44.942;0.008;2022-12-29T10:58:10;98782.75;;;14.34;68.49
47280;BME280;34064;44.942;0.008;2022-12-29T11:00:37;98787.28;;;14.34;68.43
47280;BME280;34064;44.942;0.008;2022-12-29T11:03:21;98782.75;;;14.34;68.47
47280;BME280;34064;44.942;0.008;2022-12-29T11:06:07;98778.13;;;14.37;68.33
47280;BME280;34064;44.942;0.008;2022-12-29T11:08:43;98775.44;;;14.37;68.30
47280;BME280;34064;44.942;0.008;2022-12-29T11:11:11;98777.13;;;14.38;68.31
47280;BME280;34064;44.942;0.008;2022-12-29T11:13:59;98780.63;;;14.38;68.36
47280;BME280;34064;44.942;0.008;2022-12-29T11:16:33;98777.84;;;14.40;68.42
47280;BME280;34064;44.942;0.008;2022-12-29T11:19:01;98788.22;;;14.43;68.29
47280;BME280;34064;44.942;0.008;2022-12-29T11:21:32;98779.38;;;14.42;68.38
47280;BME280;34064;44.942;0.008;2022-12-29T11:24:03;98773.88;;;14.44;68.28
47280;BME280;34064;44.942;0.008;2022-12-29T11:26:31;98771.91;;;14.46;68.31
47280;BME280;34064;44.942;0.008;2022-12-29T11:29:20;98772.91;;;14.45;68.30
47280;BME280;34064;44.942;0.008;2022-12-29T11:31:53;98772.63;;;14.48;68.52
47280;BME280;34064;44.942;0.008;2022-12-29T11:34:32;98768.09;;;14.48;68.44
47280;BME280;34064;44.942;0.008;2022-12-29T11:39:56;98751.38;;;14.56;68.33
47280;BME280;34064;44.942;0.008;2022-12-29T11:42:53;98747.00;;;14.55;68.39
47280;BME280;34064;44.942;0.008;2022-12-29T11:45:30;98734.06;;;14.50;68.51
47280;BME280;34064;44.942;0.008;2022-12-29T11:48:18;98739.56;;;14.49;68.85
47280;BME280;34064;44.942;0.008;2022-12-29T11:50:54;98737.72;;;14.49;68.82
47280;BME280;34064;44.942;0.008;2022-12-29T11:53:24;98740.25;;;14.51;68.78
47280;BME280;34064;44.942;0.008;2022-12-29T11:56:12;98741.66;;;14.55;68.89
47280;BME280;34064;44.942;0.008;2022-12-29T11:58:39;98736.31;;;14.55;68.90
47280;BME280;34064;44.942;0.008;2022-12-29T12:04:08;98729.00;;;14.57;69.00
47280;BME280;34064;44.942;0.008;2022-12-29T12:06:44;98725.03;;;14.61;68.85
47280;BME280;34064;44.942;0.008;2022-12-29T12:09:32;98712.38;;;14.63;69.05
47280;BME280;34064;44.942;0.008;2022-12-29T12:12:02;98715.75;;;14.65;68.96
47280;BME280;34064;44.942;0.008;2022-12-29T12:14:37;98712.13;;;14.66;69.15
47280;BME280;34064;44.942;0.008;2022-12-29T12:17:25;98710.00;;;14.70;69.18
47280;BME280;34064;44.942;0.008;2022-12-29T12:20:12;98709.13;;;14.70;69.08
47280;BME280;34064;44.942;0.008;2022-12-29T12:25:40;98704.09;;;14.66;69.15
47280;BME280;34064;44.942;0.008;2022-12-29T12:28:34;98705.78;;;14.68;69.25
47280;BME280;34064;44.942;0.008;2022-12-29T12:31:04;98708.47;;;14.68;69.12
47280;BME280;34064;44.942;0.008;2022-12-29T12:33:37;98704.78;;;14.69;69.16
47280;BME280;34064;44.942;0.008;2022-12-29T12:39:00;98698.31;;;14.71;69.44
47280;BME280;34064;44.942;0.008;2022-12-29T12:42:12;98692.97;;;14.71;69.33
47280;BME280;34064;44.942;0.008;2022-12-29T12:44:29;98679.44;;;14.73;69.25
47280;BME280;34064;44.942;0.008;2022-12-29T12:47:18;98670.44;;;14.74;69.46
47280;BME280;34064;44.942;0.008;2022-12-29T12:52:59;98666.03;;;14.82;69.34
47280;BME280;34064;44.942;0.008;2022-12-29T12:55:54;98661.22;;;14.86;69.39
47280;BME280;34064;44.942;0.008;2022-12-29T13:01:18;98655.97;;;14.94;69.26
47280;BME280;34064;44.942;0.008;2022-12-29T13:09:56;98645.22;;;15.04;69.51
47280;BME280;34064;44.942;0.008;2022-12-29T13:16:14;98642.41;;;15.06;69.54
47280;BME280;34064;44.942;0.008;2022-12-29T13:19:14;98642.09;;;15.09;69.54
47280;BME280;34064;44.942;0.008;2022-12-29T13:24:53;98650.28;;;15.07;69.86
47280;BME280;34064;44.942;0.008;2022-12-29T13:27:47;98650.56;;;15.04;69.74
47280;BME280;34064;44.942;0.008;2022-12-29T13:30:19;98649.72;;;15.04;69.71
47280;BME280;34064;44.942;0.008;2022-12-29T13:40:47;98662.69;;;14.98;69.80
47280;BME280;34064;44.942;0.008;2022-12-29T13:43:16;98655.22;;;15.02;69.85
47280;BME280;34064;44.942;0.008;2022-12-29T13:45:45;98652.53;;;15.02;70.01
47280;BME280;34064;44.942;0.008;2022-12-29T13:48:21;98633.28;;;14.98;70.19
47280;BME280;34064;44.942;0.008;2022-12-29T13:50:53;98624.97;;;15.02;70.43
47280;BME280;34064;44.942;0.008;2022-12-29T13:58:50;98654.75;;;15.07;70.12
47280;BME280;34064;44.942;0.008;2022-12-29T14:01:24;98660.72;;;15.01;70.29
47280;BME280;34064;44.942;0.008;2022-12-29T14:03:54;98655.38;;;15.01;70.30
47280;BME280;34064;44.942;0.008;2022-12-29T14:06:26;98652.69;;;15.01;70.27
47280;BME280;34064;44.942;0.008;2022-12-29T14:11:37;98675.41;;;14.96;70.23
47280;BME280;34064;44.942;0.008;2022-12-29T14:14:25;98669.72;;;15.00;70.54
47280;BME280;34064;44.942;0.008;2022-12-29T14:16:54;98665.25;;;15.00;70.51
47280;BME280;34064;44.942;0.008;2022-12-29T14:19:31;98667.47;;;15.05;70.35
47280;BME280;34064;44.942;0.008;2022-12-29T14:22:03;98659.88;;;15.00;70.49
47280;BME280;34064;44.942;0.008;2022-12-29T14:24:41;98648.03;;;15.03;70.53
47280;BME280;34064;44.942;0.008;2022-12-29T14:34:52;98650.50;;;15.14;70.48
47280;BME280;34064;44.942;0.008;2022-12-29T14:37:32;98652.19;;;15.15;70.54
47280;BME280;34064;44.942;0.008;2022-12-29T14:42:45;98658.38;;;15.16;70.34
47280;BME280;34064;44.942;0.008;2022-12-29T14:47:52;98678.25;;;15.13;70.58
47280;BME280;34064;44.942;0.008;2022-12-29T14:50:42;98675.59;;;15.13;70.39
47280;BME280;34064;44.942;0.008;2022-12-29T14:56:29;98684.34;;;15.05;70.35
47280;BME280;34064;44.942;0.008;2022-12-29T14:59:02;98677.31;;;15.04;70.29
47280;BME280;34064;44.942;0.008;2022-12-29T15:04:05;98687.19;;;15.04;70.36
47280;BME280;34064;44.942;0.008;2022-12-29T15:06:39;98679.44;;;15.01;70.40
47280;BME280;34064;44.942;0.008;2022-12-29T15:09:32;98679.59;;;14.99;70.41
47280;BME280;34064;44.942;0.008;2022-12-29T15:12:15;98690.31;;;14.99;70.44
47280;BME280;34064;44.942;0.008;2022-12-29T15:14:53;98683.09;;;15.00;70.22
47280;BME280;34064;44.942;0.008;2022-12-29T15:17:32;98689.44;;;14.98;70.04
47280;BME280;34064;44.942;0.008;2022-12-29T15:20:27;98683.25;;;14.98;70.29
47280;BME280;34064;44.942;0.008;2022-12-29T15:23:08;98687.09;;;14.95;70.31